sensor_id;sensor_type;location;lat;lon;timestamp;P1;durP1;ratioP1;P2;durP2;ratioP2
15603;SDS011;7902;49.042;9.092;2023-04-26T00:01:57;21.37;;;5.83;;
15603;SDS011;7902;49.042;9.092;2023-04-26T00:04:23;15.10;;;4.47;;
15603;SDS011;7902;49.042;9.092;2023-04-26T00:06:49;17.20;;;5.37;;
15603;SDS011;7902;49.042;9.092;2023-04-26T00:09:15;15.80;;;4.57;;
15603;SDS011;7902;49.042;9.092;2023-04-26T00:11:43;15.90;;;4.77;;
15603;SDS011;7902;49.042;9.092;2023-04-26T00:14:09;19.00;;;5.00;;
15603;SDS011;7902;49.042;9.092;2023-04-26T00:16:36;16.57;;;4.83;;
15603;SDS011;7902;49.042;9.092;2023-04-26T00:19:02;15.93;;;5.00;;
15603;SDS011;7902;49.042;9.092;2023-04-26T00:21:29;23.17;;;5.47;;
15603;SDS011;7902;49.042;9.092;2023-04-26T00:23:55;16.20;;;4.57;;
15603;SDS011;7902;49.042;9.092;2023-04-26T00:26:20;18.47;;;5.03;;
15603;SDS011;7902;49.042;9.092;2023-04-26T00:28:47;14.90;;;4.20;;
15603;SDS011;7902;49.042;9.092;2023-04-26T00:31:16;19.73;;;5.10;;
15603;SDS011;7902;49.042;9.092;2023-04-26T00:33:42;17.63;;;4.37;;
15603;SDS011;7902;49.042;9.092;2023-04-26T00:36:08;19.20;;;4.60;;
15603;SDS011;7902;49.042;9.092;2023-04-26T00:38:35;18.53;;;4.30;;
15603;SDS011;7902;49.042;9.092;2023-04-26T00:41:01;20.90;;;5.00;;
15603;SDS011;7902;49.042;9.092;2023-04-26T00:43:27;15.93;;;3.87;;
15603;SDS011;7902;49.042;9.092;2023-04-26T00:45:53;17.80;;;4.30;;
15603;SDS011;7902;49.042;9.092;2023-04-26T00:48:19;21.60;;;3.80;;
15603;SDS011;7902;49.042;9.092;2023-04-26T00:50:45;17.87;;;4.47;;
15603;SDS011;7902;49.042;9.092;2023-04-26T00:53:13;14.80;;;3.60;;
15603;SDS011;7902;49.042;9.092;2023-04-26T00:55:40;15.57;;;4.30;;
15603;SDS011;7902;49.042;9.092;2023-04-26T00:58:06;16.97;;;3.80;;
15603;SDS011;7902;49.042;9.092;2023-04-26T01:00:32;17.47;;;3.57;;
15603;SDS011;7902;49.042;9.092;2023-04-26T01:02:58;19.33;;;4.00;;
15603;SDS011;7902;49.042;9.092;2023-04-26T01:05:24;18.00;;;3.63;;
15603;SDS011;7902;49.042;9.092;2023-04-26T01:07:50;15.60;;;3.83;;
15603;SDS011;7902;49.042;9.092;2023-04-26T01:10:16;18.53;;;3.90;;
15603;SDS011;7902;49.042;9.092;2023-04-26T01:12:42;14.97;;;3.20;;
15603;SDS011;7902;49.042;9.092;2023-04-26T01:15:09;14.97;;;3.70;;
15603;SDS011;7902;49.042;9.092;2023-04-26T01:17:36;20.70;;;4.23;;
15603;SDS011;7902;49.042;9.092;2023-04-26T01:20:02;17.00;;;4.13;;
15603;SDS011;7902;49.042;9.092;2023-04-26T01:22:32;14.90;;;4.10;;
15603;SDS011;7902;49.042;9.092;2023-04-26T01:24:59;22.20;;;4.53;;
15603;SDS011;7902;49.042;9.092;2023-04-26T01:27:26;18.47;;;5.10;;
15603;SDS011;7902;49.042;9.092;2023-04-26T01:29:52;22.40;;;5.23;;
15603;SDS011;7902;49.042;9.092;2023-04-26T01:32:18;23.03;;;4.93;;
15603;SDS011;7902;49.042;9.092;2023-04-26T01:34:44;17.90;;;5.17;;
15603;SDS011;7902;49.042;9.092;2023-04-26T01:37:11;21.83;;;5.60;;
15603;SDS011;7902;49.042;9.092;2023-04-26T01:39:37;19.63;;;5.73;;
15603;SDS011;7902;49.042;9.092;2023-04-26T01:42:03;21.10;;;7.77;;
15603;SDS011;7902;49.042;9.092;2023-04-26T01:44:30;24.30;;;6.03;;
15603;SDS011;7902;49.042;9.092;2023-04-26T01:46:56;20.17;;;6.53;;
15603;SDS011;7902;49.042;9.092;2023-04-26T01:49:22;20.40;;;6.40;;
15603;SDS011;7902;49.042;9.092;2023-04-26T01:51:47;18.40;;;6.77;;
15603;SDS011;7902;49.042;9.092;2023-04-26T01:54:13;22.63;;;6.53;;
15603;SDS011;7902;49.042;9.092;2023-04-26T01:56:39;18.07;;;7.47;;
15603;SDS011;7902;49.042;9.092;2023-04-26T01:59:05;18.83;;;6.43;;
15603;SDS011;7902;49.042;9.092;2023-04-26T02:01:31;21.30;;;7.97;;
15603;SDS011;7902;49.042;9.092;2023-04-26T02:03:57;19.63;;;6.80;;
15603;SDS011;7902;49.042;9.092;2023-04-26T02:06:23;23.47;;;8.20;;
15603;SDS011;7902;49.042;9.092;2023-04-26T02:08:49;21.80;;;7.90;;
15603;SDS011;7902;49.042;9.092;2023-04-26T02:11:15;27.67;;;9.70;;
15603;SDS011;7902;49.042;9.092;2023-04-26T02:13:41;35.23;;;9.30;;
15603;SDS011;7902;49.042;9.092;2023-04-26T02:16:06;24.60;;;10.00;;
15603;SDS011;7902;49.042;9.092;2023-04-26T02:18:32;23.73;;;10.57;;
15603;SDS011;7902;49.042;9.092;2023-04-26T02:20:58;22.33;;;10.80;;
15603;SDS011;7902;49.042;9.092;2023-04-26T02:23:24;32.00;;;10.83;;
15603;SDS011;7902;49.042;9.092;2023-04-26T02:25:50;29.33;;;11.63;;
15603;SDS011;7902;49.042;9.092;2023-04-26T02:28:16;28.10;;;11.00;;
15603;SDS011;7902;49.042;9.092;2023-04-26T02:30:43;29.57;;;12.43;;
15603;SDS011;7902;49.042;9.092;2023-04-26T02:33:09;30.63;;;11.83;;
15603;SDS011;7902;49.042;9.092;2023-04-26T02:35:35;29.33;;;11.70;;
15603;SDS011;7902;49.042;9.092;2023-04-26T02:38:04;38.10;;;11.57;;
15603;SDS011;7902;49.042;9.092;2023-04-26T02:40:30;32.80;;;11.67;;
15603;SDS011;7902;49.042;9.092;2023-04-26T02:42:56;28.30;;;11.47;;
15603;SDS011;7902;49.042;9.092;2023-04-26T02:45:22;28.97;;;11.00;;
15603;SDS011;7902;49.042;9.092;2023-04-26T02:47:48;21.63;;;10.27;;
15603;SDS011;7902;49.042;9.092;2023-04-26T02:50:13;23.43;;;10.40;;
15603;SDS011;7902;49.042;9.092;2023-04-26T02:52:39;30.00;;;10.67;;
15603;SDS011;7902;49.042;9.092;2023-04-26T02:55:05;24.07;;;10.33;;
15603;SDS011;7902;49.042;9.092;2023-04-26T02:57:32;26.03;;;10.00;;
15603;SDS011;7902;49.042;9.092;2023-04-26T02:59:58;22.30;;;9.77;;
15603;SDS011;7902;49.042;9.092;2023-04-26T03:02:24;26.90;;;11.10;;
15603;SDS011;7902;49.042;9.092;2023-04-26T03:04:50;24.17;;;10.70;;
15603;SDS011;7902;49.042;9.092;2023-04-26T03:07:16;27.30;;;9.90;;
15603;SDS011;7902;49.042;9.092;2023-04-26T03:09:42;38.73;;;9.87;;
15603;SDS011;7902;49.042;9.092;2023-04-26T03:12:08;26.60;;;10.37;;
15603;SDS011;7902;49.042;9.092;2023-04-26T03:14:34;24.00;;;9.90;;
15603;SDS011;7902;49.042;9.092;2023-04-26T03:17:01;24.73;;;9.10;;
15603;SDS011;7902;49.042;9.092;2023-04-26T03:19:27;24.10;;;9.33;;
15603;SDS011;7902;49.042;9.092;2023-04-26T03:21:53;26.23;;;9.27;;
15603;SDS011;7902;49.042;9.092;2023-04-26T03:24:20;18.63;;;7.80;;
15603;SDS011;7902;49.042;9.092;2023-04-26T03:26:46;23.23;;;8.70;;
15603;SDS011;7902;49.042;9.092;2023-04-26T03:29:12;21.73;;;9.00;;
15603;SDS011;7902;49.042;9.092;2023-04-26T03:31:37;21.07;;;8.23;;
15603;SDS011;7902;49.042;9.092;2023-04-26T03:34:04;24.70;;;9.13;;
15603;SDS011;7902;49.042;9.092;2023-04-26T03:36:29;20.83;;;9.00;;
15603;SDS011;7902;49.042;9.092;2023-04-26T03:38:55;19.40;;;8.00;;
15603;SDS011;7902;49.042;9.092;2023-04-26T03:41:22;22.63;;;8.60;;
15603;SDS011;7902;49.042;9.092;2023-04-26T03:43:49;19.70;;;8.07;;
15603;SDS011;7902;49.042;9.092;2023-04-26T03:46:15;18.30;;;8.53;;
15603;SDS011;7902;49.042;9.092;2023-04-26T03:48:41;20.27;;;8.57;;
15603;SDS011;7902;49.042;9.092;2023-04-26T03:51:07;19.73;;;7.60;;
15603;SDS011;7902;49.042;9.092;2023-04-26T03:53:33;16.97;;;7.20;;
15603;SDS011;7902;49.042;9.092;2023-04-26T03:55:59;17.53;;;6.50;;
15603;SDS011;7902;49.042;9.092;2023-04-26T03:58:25;15.50;;;6.77;;
15603;SDS011;7902;49.042;9.092;2023-04-26T04:00:51;17.90;;;7.10;;
15603;SDS011;7902;49.042;9.092;2023-04-26T04:03:17;17.50;;;7.47;;
15603;SDS011;7902;49.042;9.092;2023-04-26T04:05:43;19.43;;;7.63;;
15603;SDS011;7902;49.042;9.092;2023-04-26T04:08:09;18.47;;;7.63;;
15603;SDS011;7902;49.042;9.092;2023-04-26T04:10:35;16.93;;;6.57;;
15603;SDS011;7902;49.042;9.092;2023-04-26T04:13:02;24.10;;;7.27;;
15603;SDS011;7902;49.042;9.092;2023-04-26T04:15:28;17.40;;;7.30;;
15603;SDS011;7902;49.042;9.092;2023-04-26T04:17:54;15.93;;;6.87;;
15603;SDS011;7902;49.042;9.092;2023-04-26T04:20:20;25.37;;;7.67;;
15603;SDS011;7902;49.042;9.092;2023-04-26T04:22:46;13.57;;;5.77;;
15603;SDS011;7902;49.042;9.092;2023-04-26T04:25:12;14.50;;;5.20;;
15603;SDS011;7902;49.042;9.092;2023-04-26T04:27:38;28.20;;;4.93;;
15603;SDS011;7902;49.042;9.092;2023-04-26T04:30:07;15.53;;;6.13;;
15603;SDS011;7902;49.042;9.092;2023-04-26T04:32:34;12.73;;;4.57;;
15603;SDS011;7902;49.042;9.092;2023-04-26T04:35:00;12.47;;;4.57;;
15603;SDS011;7902;49.042;9.092;2023-04-26T04:37:26;16.13;;;4.83;;
15603;SDS011;7902;49.042;9.092;2023-04-26T04:39:53;12.90;;;4.87;;
15603;SDS011;7902;49.042;9.092;2023-04-26T04:42:20;13.70;;;4.83;;
15603;SDS011;7902;49.042;9.092;2023-04-26T04:44:46;20.33;;;6.70;;
15603;SDS011;7902;49.042;9.092;2023-04-26T04:47:12;14.73;;;5.20;;
15603;SDS011;7902;49.042;9.092;2023-04-26T04:49:38;12.47;;;4.90;;
15603;SDS011;7902;49.042;9.092;2023-04-26T04:52:04;13.37;;;5.13;;
15603;SDS011;7902;49.042;9.092;2023-04-26T04:54:31;16.03;;;5.50;;
15603;SDS011;7902;49.042;9.092;2023-04-26T04:56:57;14.07;;;5.90;;
15603;SDS011;7902;49.042;9.092;2023-04-26T04:59:23;16.03;;;6.57;;
15603;SDS011;7902;49.042;9.092;2023-04-26T05:01:49;18.77;;;7.10;;
15603;SDS011;7902;49.042;9.092;2023-04-26T05:04:15;18.77;;;6.83;;
15603;SDS011;7902;49.042;9.092;2023-04-26T05:06:41;16.13;;;7.00;;
15603;SDS011;7902;49.042;9.092;2023-04-26T05:09:07;21.43;;;6.97;;
15603;SDS011;7902;49.042;9.092;2023-04-26T05:11:34;19.90;;;8.97;;
15603;SDS011;7902;49.042;9.092;2023-04-26T05:14:00;22.53;;;8.93;;
15603;SDS011;7902;49.042;9.092;2023-04-26T05:16:26;17.83;;;7.30;;
15603;SDS011;7902;49.042;9.092;2023-04-26T05:18:52;15.43;;;6.20;;
15603;SDS011;7902;49.042;9.092;2023-04-26T05:21:18;15.37;;;6.23;;
15603;SDS011;7902;49.042;9.092;2023-04-26T05:23:45;13.50;;;4.70;;
15603;SDS011;7902;49.042;9.092;2023-04-26T05:26:15;12.37;;;5.50;;
15603;SDS011;7902;49.042;9.092;2023-04-26T05:28:41;14.20;;;5.07;;
15603;SDS011;7902;49.042;9.092;2023-04-26T05:31:07;15.23;;;5.50;;
15603;SDS011;7902;49.042;9.092;2023-04-26T05:33:34;19.80;;;6.70;;
15603;SDS011;7902;49.042;9.092;2023-04-26T05:36:00;13.47;;;5.77;;
15603;SDS011;7902;49.042;9.092;2023-04-26T05:38:27;39.60;;;5.90;;
15603;SDS011;7902;49.042;9.092;2023-04-26T05:40:53;20.10;;;6.43;;
15603;SDS011;7902;49.042;9.092;2023-04-26T05:43:19;15.60;;;5.47;;
15603;SDS011;7902;49.042;9.092;2023-04-26T05:45:55;16.40;;;5.73;;
15603;SDS011;7902;49.042;9.092;2023-04-26T05:48:21;12.10;;;4.40;;
15603;SDS011;7902;49.042;9.092;2023-04-26T05:50:48;18.13;;;4.63;;
15603;SDS011;7902;49.042;9.092;2023-04-26T05:53:15;12.03;;;3.90;;
15603;SDS011;7902;49.042;9.092;2023-04-26T05:55:41;17.57;;;5.17;;
15603;SDS011;7902;49.042;9.092;2023-04-26T05:58:08;25.80;;;5.17;;
15603;SDS011;7902;49.042;9.092;2023-04-26T06:00:34;16.87;;;5.97;;
15603;SDS011;7902;49.042;9.092;2023-04-26T06:03:01;20.30;;;6.60;;
15603;SDS011;7902;49.042;9.092;2023-04-26T06:05:27;22.53;;;7.17;;
15603;SDS011;7902;49.042;9.092;2023-04-26T06:07:53;25.03;;;10.37;;
15603;SDS011;7902;49.042;9.092;2023-04-26T06:10:19;29.87;;;11.83;;
15603;SDS011;7902;49.042;9.092;2023-04-26T06:12:45;26.30;;;10.73;;
15603;SDS011;7902;49.042;9.092;2023-04-26T06:15:11;24.23;;;10.40;;
15603;SDS011;7902;49.042;9.092;2023-04-26T06:17:37;25.30;;;9.67;;
15603;SDS011;7902;49.042;9.092;2023-04-26T06:20:03;23.10;;;8.93;;
15603;SDS011;7902;49.042;9.092;2023-04-26T06:22:30;20.83;;;9.23;;
15603;SDS011;7902;49.042;9.092;2023-04-26T06:24:56;22.70;;;9.57;;
15603;SDS011;7902;49.042;9.092;2023-04-26T06:27:22;24.00;;;9.60;;
15603;SDS011;7902;49.042;9.092;2023-04-26T06:29:47;21.87;;;9.20;;
15603;SDS011;7902;49.042;9.092;2023-04-26T06:32:13;20.80;;;8.40;;
15603;SDS011;7902;49.042;9.092;2023-04-26T06:34:39;22.40;;;7.60;;
15603;SDS011;7902;49.042;9.092;2023-04-26T06:37:06;18.97;;;8.00;;
15603;SDS011;7902;49.042;9.092;2023-04-26T06:39:32;22.13;;;8.33;;
15603;SDS011;7902;49.042;9.092;2023-04-26T06:41:57;35.27;;;8.03;;
15603;SDS011;7902;49.042;9.092;2023-04-26T06:44:23;21.23;;;7.50;;
15603;SDS011;7902;49.042;9.092;2023-04-26T06:46:52;16.40;;;5.70;;
15603;SDS011;7902;49.042;9.092;2023-04-26T06:49:19;18.40;;;8.00;;
15603;SDS011;7902;49.042;9.092;2023-04-26T06:51:45;19.90;;;6.77;;
15603;SDS011;7902;49.042;9.092;2023-04-26T06:54:11;20.57;;;6.27;;
15603;SDS011;7902;49.042;9.092;2023-04-26T06:56:37;14.70;;;4.93;;
15603;SDS011;7902;49.042;9.092;2023-04-26T06:59:04;13.33;;;3.93;;
15603;SDS011;7902;49.042;9.092;2023-04-26T07:01:32;18.67;;;4.70;;
15603;SDS011;7902;49.042;9.092;2023-04-26T07:03:59;23.27;;;5.27;;
15603;SDS011;7902;49.042;9.092;2023-04-26T07:06:28;27.37;;;5.53;;
15603;SDS011;7902;49.042;9.092;2023-04-26T07:08:58;14.03;;;4.70;;
15603;SDS011;7902;49.042;9.092;2023-04-26T07:11:25;14.73;;;4.30;;
15603;SDS011;7902;49.042;9.092;2023-04-26T07:13:51;17.10;;;4.50;;
15603;SDS011;7902;49.042;9.092;2023-04-26T07:16:17;23.27;;;4.73;;
15603;SDS011;7902;49.042;9.092;2023-04-26T07:18:43;19.10;;;5.10;;
15603;SDS011;7902;49.042;9.092;2023-04-26T07:21:09;11.60;;;2.83;;
15603;SDS011;7902;49.042;9.092;2023-04-26T07:23:35;12.97;;;3.27;;
15603;SDS011;7902;49.042;9.092;2023-04-26T07:26:01;16.83;;;4.00;;
15603;SDS011;7902;49.042;9.092;2023-04-26T07:28:29;14.37;;;3.83;;
15603;SDS011;7902;49.042;9.092;2023-04-26T07:30:56;16.60;;;3.80;;
15603;SDS011;7902;49.042;9.092;2023-04-26T07:33:23;16.03;;;3.43;;
15603;SDS011;7902;49.042;9.092;2023-04-26T07:35:53;16.70;;;2.60;;
15603;SDS011;7902;49.042;9.092;2023-04-26T07:38:23;16.87;;;3.20;;
15603;SDS011;7902;49.042;9.092;2023-04-26T07:40:49;14.93;;;3.27;;
15603;SDS011;7902;49.042;9.092;2023-04-26T07:43:16;22.77;;;2.83;;
15603;SDS011;7902;49.042;9.092;2023-04-26T07:45:42;16.50;;;2.53;;
15603;SDS011;7902;49.042;9.092;2023-04-26T07:48:08;15.83;;;2.80;;
15603;SDS011;7902;49.042;9.092;2023-04-26T07:50:34;15.60;;;2.80;;
15603;SDS011;7902;49.042;9.092;2023-04-26T07:53:00;16.67;;;2.93;;
15603;SDS011;7902;49.042;9.092;2023-04-26T07:55:26;14.17;;;2.83;;
15603;SDS011;7902;49.042;9.092;2023-04-26T07:57:52;14.47;;;3.43;;
15603;SDS011;7902;49.042;9.092;2023-04-26T08:00:18;16.03;;;4.23;;
15603;SDS011;7902;49.042;9.092;2023-04-26T08:02:44;13.83;;;2.90;;
15603;SDS011;7902;49.042;9.092;2023-04-26T08:05:13;15.33;;;3.50;;
15603;SDS011;7902;49.042;9.092;2023-04-26T08:07:40;15.60;;;4.87;;
15603;SDS011;7902;49.042;9.092;2023-04-26T08:10:06;17.60;;;3.00;;
15603;SDS011;7902;49.042;9.092;2023-04-26T08:12:33;15.40;;;3.10;;
15603;SDS011;7902;49.042;9.092;2023-04-26T08:15:00;14.87;;;2.70;;
15603;SDS011;7902;49.042;9.092;2023-04-26T08:17:26;15.20;;;2.30;;
15603;SDS011;7902;49.042;9.092;2023-04-26T08:19:52;12.23;;;2.30;;
15603;SDS011;7902;49.042;9.092;2023-04-26T08:22:18;12.07;;;2.20;;
15603;SDS011;7902;49.042;9.092;2023-04-26T08:24:48;18.87;;;3.10;;
15603;SDS011;7902;49.042;9.092;2023-04-26T08:27:19;14.80;;;2.90;;
15603;SDS011;7902;49.042;9.092;2023-04-26T08:29:45;13.20;;;2.50;;
15603;SDS011;7902;49.042;9.092;2023-04-26T08:32:11;13.63;;;2.60;;
15603;SDS011;7902;49.042;9.092;2023-04-26T08:34:37;22.50;;;2.50;;
15603;SDS011;7902;49.042;9.092;2023-04-26T08:37:05;22.23;;;3.20;;
15603;SDS011;7902;49.042;9.092;2023-04-26T08:39:32;12.40;;;2.30;;
15603;SDS011;7902;49.042;9.092;2023-04-26T08:41:59;53.03;;;5.33;;
15603;SDS011;7902;49.042;9.092;2023-04-26T08:44:30;23.70;;;4.03;;
15603;SDS011;7902;49.042;9.092;2023-04-26T08:47:03;16.70;;;3.60;;
15603;SDS011;7902;49.042;9.092;2023-04-26T08:49:38;18.73;;;2.97;;
15603;SDS011;7902;49.042;9.092;2023-04-26T08:52:09;17.80;;;3.13;;
15603;SDS011;7902;49.042;9.092;2023-04-26T08:54:40;16.87;;;3.17;;
15603;SDS011;7902;49.042;9.092;2023-04-26T08:57:06;25.00;;;2.90;;
15603;SDS011;7902;49.042;9.092;2023-04-26T08:59:36;14.30;;;2.70;;
15603;SDS011;7902;49.042;9.092;2023-04-26T09:02:04;21.00;;;2.80;;
15603;SDS011;7902;49.042;9.092;2023-04-26T09:04:31;14.10;;;2.30;;
15603;SDS011;7902;49.042;9.092;2023-04-26T09:07:01;19.13;;;2.80;;
15603;SDS011;7902;49.042;9.092;2023-04-26T09:09:35;20.53;;;3.20;;
15603;SDS011;7902;49.042;9.092;2023-04-26T09:12:06;14.57;;;2.30;;
15603;SDS011;7902;49.042;9.092;2023-04-26T09:14:32;18.03;;;3.00;;
15603;SDS011;7902;49.042;9.092;2023-04-26T09:16:58;16.70;;;2.70;;
15603;SDS011;7902;49.042;9.092;2023-04-26T09:19:58;20.57;;;2.87;;
15603;SDS011;7902;49.042;9.092;2023-04-26T09:22:27;43.23;;;3.50;;
15603;SDS011;7902;49.042;9.092;2023-04-26T09:24:56;25.20;;;2.97;;
15603;SDS011;7902;49.042;9.092;2023-04-26T09:27:30;15.30;;;2.20;;
15603;SDS011;7902;49.042;9.092;2023-04-26T09:37:55;16.70;;;2.63;;
15603;SDS011;7902;49.042;9.092;2023-04-26T09:40:21;22.23;;;2.60;;
15603;SDS011;7902;49.042;9.092;2023-04-26T09:43:06;19.20;;;2.70;;
15603;SDS011;7902;49.042;9.092;2023-04-26T09:45:50;15.80;;;2.33;;
15603;SDS011;7902;49.042;9.092;2023-04-26T09:48:24;15.33;;;2.60;;
15603;SDS011;7902;49.042;9.092;2023-04-26T09:50:59;17.17;;;2.17;;
15603;SDS011;7902;49.042;9.092;2023-04-26T09:53:39;15.23;;;2.60;;
15603;SDS011;7902;49.042;9.092;2023-04-26T09:56:13;17.37;;;2.47;;
15603;SDS011;7902;49.042;9.092;2023-04-26T10:01:15;17.37;;;2.83;;
15603;SDS011;7902;49.042;9.092;2023-04-26T10:03:43;14.63;;;3.00;;
15603;SDS011;7902;49.042;9.092;2023-04-26T10:06:11;14.77;;;2.57;;
15603;SDS011;7902;49.042;9.092;2023-04-26T10:08:37;22.97;;;2.27;;
15603;SDS011;7902;49.042;9.092;2023-04-26T10:11:03;21.87;;;3.20;;
15603;SDS011;7902;49.042;9.092;2023-04-26T10:13:32;20.87;;;2.73;;
15603;SDS011;7902;49.042;9.092;2023-04-26T10:15:59;13.67;;;3.03;;
15603;SDS011;7902;49.042;9.092;2023-04-26T10:18:26;22.07;;;2.40;;
15603;SDS011;7902;49.042;9.092;2023-04-26T10:20:54;15.67;;;2.40;;
15603;SDS011;7902;49.042;9.092;2023-04-26T10:23:23;14.83;;;2.50;;
15603;SDS011;7902;49.042;9.092;2023-04-26T10:25:50;14.07;;;2.30;;
15603;SDS011;7902;49.042;9.092;2023-04-26T10:28:17;15.60;;;2.40;;
15603;SDS011;7902;49.042;9.092;2023-04-26T10:30:58;14.00;;;2.20;;
15603;SDS011;7902;49.042;9.092;2023-04-26T10:33:25;23.00;;;2.80;;
15603;SDS011;7902;49.042;9.092;2023-04-26T10:35:58;17.30;;;2.40;;
15603;SDS011;7902;49.042;9.092;2023-04-26T10:38:35;19.37;;;2.87;;
15603;SDS011;7902;49.042;9.092;2023-04-26T10:44:36;18.27;;;2.50;;
15603;SDS011;7902;49.042;9.092;2023-04-26T10:47:03;17.57;;;1.97;;
15603;SDS011;7902;49.042;9.092;2023-04-26T10:49:31;15.80;;;2.27;;
15603;SDS011;7902;49.042;9.092;2023-04-26T10:52:10;19.70;;;2.37;;
15603;SDS011;7902;49.042;9.092;2023-04-26T10:57:49;17.27;;;2.37;;
15603;SDS011;7902;49.042;9.092;2023-04-26T11:00:25;26.77;;;6.30;;
15603;SDS011;7902;49.042;9.092;2023-04-26T11:08:07;14.03;;;2.40;;
15603;SDS011;7902;49.042;9.092;2023-04-26T11:10:39;15.33;;;2.67;;
15603;SDS011;7902;49.042;9.092;2023-04-26T11:13:06;23.00;;;3.13;;
15603;SDS011;7902;49.042;9.092;2023-04-26T11:15:32;15.03;;;2.43;;
15603;SDS011;7902;49.042;9.092;2023-04-26T11:18:02;60.67;;;4.17;;
15603;SDS011;7902;49.042;9.092;2023-04-26T11:20:30;24.70;;;3.00;;
15603;SDS011;7902;49.042;9.092;2023-04-26T11:22:57;14.57;;;2.40;;
15603;SDS011;7902;49.042;9.092;2023-04-26T11:25:24;16.80;;;2.73;;
15603;SDS011;7902;49.042;9.092;2023-04-26T11:28:00;14.10;;;2.77;;
15603;SDS011;7902;49.042;9.092;2023-04-26T11:30:30;14.20;;;2.30;;
15603;SDS011;7902;49.042;9.092;2023-04-26T11:33:01;18.50;;;2.80;;
15603;SDS011;7902;49.042;9.092;2023-04-26T11:35:31;12.33;;;2.20;;
15603;SDS011;7902;49.042;9.092;2023-04-26T11:37:59;20.50;;;2.90;;
15603;SDS011;7902;49.042;9.092;2023-04-26T11:40:32;16.07;;;2.60;;
15603;SDS011;7902;49.042;9.092;2023-04-26T11:43:04;19.73;;;3.10;;
15603;SDS011;7902;49.042;9.092;2023-04-26T11:45:34;19.57;;;2.77;;
15603;SDS011;7902;49.042;9.092;2023-04-26T11:48:01;15.07;;;2.40;;
15603;SDS011;7902;49.042;9.092;2023-04-26T11:50:30;15.90;;;2.87;;
15603;SDS011;7902;49.042;9.092;2023-04-26T11:52:58;15.07;;;2.17;;
15603;SDS011;7902;49.042;9.092;2023-04-26T11:55:31;23.37;;;2.37;;
15603;SDS011;7902;49.042;9.092;2023-04-26T11:57:58;20.73;;;2.30;;
15603;SDS011;7902;49.042;9.092;2023-04-26T12:00:25;14.90;;;2.27;;
15603;SDS011;7902;49.042;9.092;2023-04-26T12:02:52;18.10;;;2.53;;
15603;SDS011;7902;49.042;9.092;2023-04-26T12:05:22;15.00;;;2.17;;
15603;SDS011;7902;49.042;9.092;2023-04-26T12:07:58;19.13;;;3.20;;
15603;SDS011;7902;49.042;9.092;2023-04-26T12:10:26;18.10;;;2.50;;
15603;SDS011;7902;49.042;9.092;2023-04-26T12:12:53;16.30;;;2.63;;
15603;SDS011;7902;49.042;9.092;2023-04-26T12:15:24;19.90;;;2.73;;
15603;SDS011;7902;49.042;9.092;2023-04-26T12:17:53;17.83;;;2.40;;
15603;SDS011;7902;49.042;9.092;2023-04-26T12:20:27;19.00;;;2.23;;
15603;SDS011;7902;49.042;9.092;2023-04-26T12:23:04;23.43;;;3.33;;
15603;SDS011;7902;49.042;9.092;2023-04-26T12:25:32;18.10;;;2.63;;
15603;SDS011;7902;49.042;9.092;2023-04-26T12:28:03;25.10;;;2.70;;
15603;SDS011;7902;49.042;9.092;2023-04-26T12:30:32;24.70;;;4.17;;
15603;SDS011;7902;49.042;9.092;2023-04-26T12:32:58;21.17;;;2.90;;
15603;SDS011;7902;49.042;9.092;2023-04-26T12:35:24;18.83;;;2.80;;
15603;SDS011;7902;49.042;9.092;2023-04-26T12:37:51;17.20;;;2.40;;
15603;SDS011;7902;49.042;9.092;2023-04-26T12:40:24;15.97;;;2.43;;
15603;SDS011;7902;49.042;9.092;2023-04-26T12:42:50;14.07;;;2.00;;
15603;SDS011;7902;49.042;9.092;2023-04-26T12:45:16;17.30;;;2.30;;
15603;SDS011;7902;49.042;9.092;2023-04-26T12:47:46;15.97;;;2.13;;
15603;SDS011;7902;49.042;9.092;2023-04-26T12:50:12;17.60;;;2.03;;
15603;SDS011;7902;49.042;9.092;2023-04-26T12:52:40;18.37;;;2.43;;
15603;SDS011;7902;49.042;9.092;2023-04-26T12:55:08;23.10;;;2.50;;
15603;SDS011;7902;49.042;9.092;2023-04-26T12:57:39;13.90;;;2.00;;
15603;SDS011;7902;49.042;9.092;2023-04-26T13:00:08;17.53;;;2.20;;
15603;SDS011;7902;49.042;9.092;2023-04-26T13:02:38;16.70;;;2.57;;
15603;SDS011;7902;49.042;9.092;2023-04-26T13:05:04;23.67;;;3.50;;
15603;SDS011;7902;49.042;9.092;2023-04-26T13:07:34;64.13;;;4.60;;
15603;SDS011;7902;49.042;9.092;2023-04-26T13:10:04;21.17;;;2.87;;
15603;SDS011;7902;49.042;9.092;2023-04-26T13:12:31;16.13;;;2.50;;
15603;SDS011;7902;49.042;9.092;2023-04-26T13:14:57;16.40;;;2.50;;
15603;SDS011;7902;49.042;9.092;2023-04-26T13:17:24;69.43;;;3.40;;
15603;SDS011;7902;49.042;9.092;2023-04-26T13:19:51;26.43;;;5.20;;
15603;SDS011;7902;49.042;9.092;2023-04-26T13:22:18;17.90;;;3.23;;
15603;SDS011;7902;49.042;9.092;2023-04-26T13:24:44;21.53;;;4.17;;
15603;SDS011;7902;49.042;9.092;2023-04-26T13:27:10;21.83;;;2.47;;
15603;SDS011;7902;49.042;9.092;2023-04-26T13:29:37;25.03;;;2.93;;
15603;SDS011;7902;49.042;9.092;2023-04-26T13:32:04;19.40;;;2.23;;
15603;SDS011;7902;49.042;9.092;2023-04-26T13:34:30;16.73;;;2.13;;
15603;SDS011;7902;49.042;9.092;2023-04-26T13:36:56;20.03;;;2.30;;
15603;SDS011;7902;49.042;9.092;2023-04-26T13:39:22;16.70;;;1.93;;
15603;SDS011;7902;49.042;9.092;2023-04-26T13:41:50;21.03;;;3.23;;
15603;SDS011;7902;49.042;9.092;2023-04-26T13:44:16;25.50;;;2.80;;
15603;SDS011;7902;49.042;9.092;2023-04-26T13:46:44;22.20;;;2.10;;
15603;SDS011;7902;49.042;9.092;2023-04-26T13:49:10;38.77;;;3.77;;
15603;SDS011;7902;49.042;9.092;2023-04-26T13:51:37;19.90;;;2.67;;
15603;SDS011;7902;49.042;9.092;2023-04-26T13:54:03;21.80;;;2.03;;
15603;SDS011;7902;49.042;9.092;2023-04-26T13:56:30;21.47;;;2.23;;
15603;SDS011;7902;49.042;9.092;2023-04-26T13:58:58;23.43;;;2.50;;
15603;SDS011;7902;49.042;9.092;2023-04-26T14:01:28;15.00;;;1.80;;
15603;SDS011;7902;49.042;9.092;2023-04-26T14:03:54;19.00;;;1.80;;
15603;SDS011;7902;49.042;9.092;2023-04-26T14:06:20;20.13;;;1.80;;
15603;SDS011;7902;49.042;9.092;2023-04-26T14:08:46;20.17;;;2.40;;
15603;SDS011;7902;49.042;9.092;2023-04-26T14:11:12;18.00;;;1.93;;
15603;SDS011;7902;49.042;9.092;2023-04-26T14:13:39;24.57;;;2.87;;
15603;SDS011;7902;49.042;9.092;2023-04-26T14:16:05;19.30;;;2.70;;
15603;SDS011;7902;49.042;9.092;2023-04-26T14:18:32;24.10;;;2.13;;
15603;SDS011;7902;49.042;9.092;2023-04-26T14:20:58;19.67;;;2.70;;
15603;SDS011;7902;49.042;9.092;2023-04-26T14:23:24;16.50;;;2.40;;
15603;SDS011;7902;49.042;9.092;2023-04-26T14:25:51;17.77;;;2.73;;
15603;SDS011;7902;49.042;9.092;2023-04-26T14:28:17;22.20;;;2.60;;
15603;SDS011;7902;49.042;9.092;2023-04-26T14:30:43;17.17;;;2.03;;
15603;SDS011;7902;49.042;9.092;2023-04-26T14:33:10;16.80;;;1.80;;
15603;SDS011;7902;49.042;9.092;2023-04-26T14:35:37;19.53;;;2.07;;
15603;SDS011;7902;49.042;9.092;2023-04-26T14:38:03;19.80;;;2.33;;
15603;SDS011;7902;49.042;9.092;2023-04-26T14:40:29;59.37;;;3.87;;
15603;SDS011;7902;49.042;9.092;2023-04-26T14:42:56;24.97;;;2.80;;
15603;SDS011;7902;49.042;9.092;2023-04-26T14:45:22;15.93;;;2.17;;
15603;SDS011;7902;49.042;9.092;2023-04-26T14:47:47;16.57;;;3.07;;
15603;SDS011;7902;49.042;9.092;2023-04-26T14:50:13;20.70;;;2.70;;
15603;SDS011;7902;49.042;9.092;2023-04-26T14:52:39;20.03;;;1.87;;
15603;SDS011;7902;49.042;9.092;2023-04-26T14:55:05;15.67;;;1.73;;
15603;SDS011;7902;49.042;9.092;2023-04-26T14:57:32;16.27;;;1.90;;
15603;SDS011;7902;49.042;9.092;2023-04-26T14:59:59;26.23;;;3.30;;
15603;SDS011;7902;49.042;9.092;2023-04-26T15:02:31;16.57;;;2.30;;
15603;SDS011;7902;49.042;9.092;2023-04-26T15:04:58;14.37;;;1.87;;
15603;SDS011;7902;49.042;9.092;2023-04-26T15:07:24;18.87;;;2.40;;
15603;SDS011;7902;49.042;9.092;2023-04-26T15:09:50;16.00;;;2.90;;
15603;SDS011;7902;49.042;9.092;2023-04-26T15:12:16;14.83;;;2.40;;